Sylvan, Minnesota
Current Conditions -  °F | °C
As of 2:53 AM on Saturday 25 Oct 2014 (Local Time) from KBRD Reporting Station
Clear Clear  
Wind Chill: 52°   Ceiling: Unl
Heat Index: 52°   Visibility: 10mi
Dew Point: 33°   Wind: 9mph
Humidity: 49%   Direction: 290°WNW
Pressure: 29.93"   Gusts: NA
Location:  46.4437°N, 94.4479°W
Report Text: KBRD 250753Z AUTO 29008KT 10SM CLR 11/01 A2993 RMK AO2 SLP137 T01110006
Loading
Personal Weather Stations






























Interactive Weather Map
Tropical Storm Tracking
New forecast layout! Learn more

10-Day Weather Forecast

Advertisements
Track Severe Weather on mobile